createdAt,value
2023-01-01T00:04:54.955Z,3.6
2023-01-01T00:10:21.315Z,3.6
2023-01-01T00:27:10.797Z,2.4
2023-01-01T00:38:16.453Z,4.8
2023-01-01T01:00:34.928Z,3.6
2023-01-01T01:17:09.053Z,7.2
2023-01-01T02:01:28.496Z,0
2023-01-01T02:46:02.952Z,0
2023-01-01T02:57:04.619Z,0
2023-01-01T03:02:34.046Z,2.4
2023-01-01T03:08:14.115Z,0
2023-01-01T03:13:39.485Z,0
2023-01-01T03:19:19.298Z,3.6
2023-01-01T03:24:35.447Z,0
2023-01-01T03:30:13.205Z,0
2023-01-01T03:35:42.749Z,0
2023-01-01T03:41:26.160Z,0
2023-01-01T03:46:35.495Z,0
2023-01-01T03:52:04.546Z,0
2023-01-01T03:58:03.639Z,0
2023-01-01T04:03:08.801Z,0
2023-01-01T04:08:44.402Z,0
2023-01-01T04:14:27.075Z,0
2023-01-01T04:20:06.618Z,4.8
2023-01-01T04:25:42.215Z,7.2
2023-01-01T04:31:01.455Z,7.2
2023-01-01T04:36:40.606Z,8.4
2023-01-01T04:42:19.486Z,5.9
2023-01-01T04:47:34.532Z,8.4
2023-01-01T04:53:09.508Z,7.2
2023-01-01T04:58:34.848Z,4.8
2023-01-01T05:04:02.608Z,4.8
2023-01-01T05:09:52.962Z,3.6
2023-01-01T05:15:08.304Z,5.9
2023-01-01T05:20:46.562Z,4.8
2023-01-01T05:26:40.603Z,5.9
2023-01-01T05:31:54.516Z,4.8
2023-01-01T05:37:44.848Z,5.9
2023-01-01T05:42:58.134Z,4.8
2023-01-01T05:48:43.367Z,2.4
2023-01-01T05:54:01.720Z,0
2023-01-01T05:59:32.631Z,0
2023-01-01T06:05:08.702Z,0
2023-01-01T06:10:28.386Z,2.4
2023-01-01T06:16:07.933Z,0
2023-01-01T06:21:48.318Z,0
2023-01-01T06:27:17.254Z,0
2023-01-01T06:32:41.580Z,2.4
2023-01-01T06:38:09.432Z,3.6
2023-01-01T06:43:49.271Z,0
2023-01-01T06:49:39.250Z,0
2023-01-01T06:54:54.219Z,0
2023-01-01T07:00:27.647Z,2.4
2023-01-01T07:06:15.271Z,0
2023-01-01T07:11:45.194Z,4.8
2023-01-01T07:17:02.347Z,3.6
2023-01-01T07:22:48.841Z,0
2023-01-01T07:28:03.998Z,0
2023-01-01T07:33:44.133Z,0
2023-01-01T07:39:23.951Z,0
2023-01-01T07:44:49.880Z,0
2023-01-01T07:50:29.309Z,0
2023-01-01T07:55:50.357Z,2.4
2023-01-01T08:01:25.618Z,3.6
2023-01-01T08:06:41.310Z,4.8
2023-01-01T08:12:29.199Z,7.2
2023-01-01T08:17:51.939Z,4.8
2023-01-01T08:23:23.422Z,7.2
2023-01-01T08:29:05.064Z,9.6
2023-01-01T08:34:28.848Z,8.4
2023-01-01T08:40:08.143Z,8.4
2023-01-01T08:45:39.419Z,7.2
2023-01-01T08:51:17.120Z,4.8
2023-01-01T08:56:51.918Z,5.9
2023-01-01T09:02:08.338Z,4.8
2023-01-01T09:07:53.375Z,4.8
2023-01-01T09:13:13.084Z,5.9
2023-01-01T09:19:06.838Z,7.2
2023-01-01T09:24:28.428Z,8.4
2023-01-01T09:29:58.842Z,4.8
2023-01-01T09:35:24.133Z,2.4
2023-01-01T09:40:55.437Z,3.6
2023-01-01T09:46:45.746Z,3.6
2023-01-01T09:52:08.406Z,2.4
2023-01-01T09:57:33.622Z,2.4
2023-01-01T10:03:15.477Z,4.8
2023-01-01T10:08:55.501Z,3.6
2023-01-01T10:14:30.311Z,4.8
2023-01-01T10:19:58.340Z,5.9
2023-01-01T10:25:45.205Z,7.2
2023-01-01T10:31:14.895Z,4.8
2023-01-01T10:36:36.003Z,3.6
2023-01-01T10:41:58.779Z,3.6
2023-01-01T10:47:29.840Z,4.8
2023-01-01T10:53:27.249Z,0
2023-01-01T10:58:46.096Z,0
2023-01-01T11:04:32.121Z,0
2023-01-01T11:09:57.128Z,0
2023-01-01T11:15:18.752Z,0
2023-01-01T11:20:59.161Z,2.4
2023-01-01T11:26:23.738Z,0
2023-01-01T11:31:57.078Z,0
2023-01-01T11:37:22.082Z,0
2023-01-01T11:43:07.645Z,4.8
2023-01-01T11:48:49.317Z,3.6
2023-01-01T11:53:59.826Z,5.9
2023-01-01T11:59:43.371Z,7.2
2023-01-01T12:05:23.165Z,4.8
2023-01-01T12:10:54.954Z,3.6
2023-01-01T12:16:36.701Z,5.9
2023-01-01T12:22:09.764Z,3.6
2023-01-01T12:27:15.689Z,0
2023-01-01T12:33:08.902Z,3.6
2023-01-01T12:38:22.961Z,4.8
2023-01-01T12:43:57.459Z,3.6
2023-01-01T12:49:49.402Z,2.4
2023-01-01T12:55:22.904Z,4.8
2023-01-01T13:00:34.625Z,4.8
2023-01-01T13:06:17.404Z,4.8
2023-01-01T13:11:51.747Z,5.9
2023-01-01T13:17:23.432Z,7.2
2023-01-01T13:23:12.304Z,4.8
2023-01-01T13:28:31.435Z,5.9
2023-01-01T13:34:05.500Z,4.8
2023-01-01T13:39:23.369Z,7.2
2023-01-01T13:45:36.785Z,4.8
2023-01-01T13:50:39.901Z,5.9
2023-01-01T13:56:19.233Z,3.6
2023-01-01T14:01:55.735Z,4.8
2023-01-01T14:12:49.328Z,4.8
2023-01-01T14:18:44.462Z,4.8
2023-01-01T14:24:07.118Z,4.8
2023-01-01T14:29:46.243Z,4.8
2023-01-01T14:34:58.085Z,3.6
2023-01-01T14:40:27.396Z,3.6
2023-01-01T14:46:11.274Z,2.4
2023-01-01T14:51:56.322Z,0
2023-01-01T14:57:24.774Z,0
2023-01-01T15:02:51.274Z,0
2023-01-01T15:08:35.826Z,0
2023-01-01T15:14:00.544Z,0
2023-01-01T15:19:29.004Z,0
2023-01-01T15:24:48.727Z,0
2023-01-01T15:30:35.924Z,0
2023-01-01T15:36:07.919Z,0
2023-01-01T15:41:30.053Z,0
2023-01-01T15:47:23.104Z,0
2023-01-01T15:52:40.643Z,0
2023-01-01T15:58:04.264Z,0
2023-01-01T16:03:37.826Z,0
2023-01-01T16:09:29.405Z,0
2023-01-01T16:14:51.325Z,0
2023-01-01T16:20:30.705Z,4.8
2023-01-01T16:26:05.364Z,4.8
2023-01-01T16:31:35.016Z,0
2023-01-01T16:37:06.525Z,0
2023-01-01T16:42:27.810Z,0
2023-01-01T16:48:01.709Z,0
2023-01-01T16:53:40.512Z,0
2023-01-01T16:59:03.663Z,0
2023-01-01T17:04:39.039Z,0
2023-01-01T17:10:20.066Z,0
2023-01-01T17:21:23.761Z,0
2023-01-01T17:26:34.145Z,0
2023-01-01T17:32:13.796Z,0
2023-01-01T17:37:47.919Z,0
2023-01-01T17:43:32.319Z,0
2023-01-01T17:49:04.303Z,0
2023-01-01T17:54:27.583Z,0
2023-01-01T18:00:07.371Z,0
2023-01-01T18:05:23.924Z,0
2023-01-01T18:10:55.570Z,0
2023-01-01T18:16:25.132Z,0
2023-01-01T18:22:19.507Z,0
2023-01-01T18:27:33.973Z,0
2023-01-01T18:33:22.515Z,0
2023-01-01T18:38:47.866Z,0
2023-01-01T18:44:17.518Z,0
2023-01-01T18:49:50.205Z,0
2023-01-01T18:55:29.348Z,0
2023-01-01T19:00:37.550Z,0
2023-01-01T19:06:12.266Z,0
2023-01-01T19:11:44.229Z,0
2023-01-01T19:17:10.396Z,0
2023-01-01T19:23:07.311Z,0
2023-01-01T19:28:18.882Z,0
2023-01-01T19:33:46.288Z,0
2023-01-01T19:39:27.648Z,0
2023-01-01T19:45:01.697Z,0
2023-01-01T19:50:29.026Z,0
2023-01-01T19:56:20.665Z,0
2023-01-01T20:02:10.120Z,0
2023-01-01T20:07:16.104Z,0
2023-01-01T20:12:35.120Z,0
2023-01-01T20:18:20.936Z,0
2023-01-01T20:23:56.241Z,0
2023-01-01T20:29:19.587Z,0
2023-01-01T20:34:47.341Z,3.6
2023-01-01T20:40:14.827Z,0
2023-01-01T20:45:41.015Z,0
2023-01-01T20:51:13.816Z,0
2023-01-01T20:56:44.703Z,0
2023-01-01T21:02:31.546Z,2.4
2023-01-01T21:08:02.368Z,0
2023-01-01T21:13:21.329Z,0
2023-01-01T21:19:03.740Z,0
2023-01-01T21:24:53.883Z,0
2023-01-01T21:30:09.065Z,0
2023-01-01T21:35:29.207Z,0
2023-01-01T21:41:15.341Z,0
2023-01-01T21:46:37.051Z,0
2023-01-01T21:52:23.792Z,0
2023-01-01T21:57:43.791Z,0
2023-01-01T22:03:22.662Z,0
2023-01-01T22:08:39.330Z,0
2023-01-01T22:14:08.715Z,0
2023-01-01T22:19:40.019Z,0
2023-01-01T22:25:28.084Z,0
2023-01-01T22:36:19.269Z,0
2023-01-01T22:41:54.128Z,0
2023-01-01T22:47:19.457Z,0
2023-01-01T22:53:17.050Z,0
2023-01-01T22:58:27.853Z,0
2023-01-01T23:04:00.626Z,0
2023-01-01T23:09:26.272Z,0
2023-01-01T23:15:09.867Z,0
2023-01-01T23:20:45.577Z,0
2023-01-01T23:26:12.092Z,0
2023-01-01T23:31:39.669Z,0
2023-01-01T23:37:27.256Z,0
2023-01-01T23:42:35.014Z,0
2023-01-01T23:48:13.596Z,0
2023-01-01T23:53:43.894Z,0
2023-01-01T23:59:29.917Z,4.8
